Erden
Erden with a class
Logo

Erden Data

Erden Weather Data (map)

Date Bar Pressure Humidity Air Temp
8/11/07 1018.9hPa XXXhumidity 22.5C
8/12/07 1019.5hPa 69%humidity 24.7C
8/13/07 1019.2hPa 73%humidity 23.3C
8/14/07 1018.1hPa 69%humidity 23.0C
8/15/07 1017.1hPa 72%humidity 22.4C
8/16/07 1017.7hPa 73%humidity 23.2C
8/17/07 1017.3hPa 78%humidity 24.2C
8/18/07 1017.3hPa 67%humidity 25.4C
8/19/07 1016.0hPa 75%humidity 23.1C
8/20/07 1014.7hPa 75%humidity 23.3C
08/21/07 1015.8hPa 66%humidity 27.0C
08/22/07 1015.2hPa 69%humidity 27.8C
08/25/07 1011.8hPa 75%humidity 28.3C
08/27/07 1013.2hPa 80%humidity 27.6C
08/28/07 1013.2hPa 88%humidity 25.8C
08/29/07 1012.5hPa 87%humidity 26.0C
08/30/07 1013.8hPa 89%humidity 26.1C
08/31/07 1014.5hPa 83%humidity 26.9C
09/01/07 1013.2hPa 71%humidity 26.9C
09/02/07 1012.0hPa 72%humidity 26.6C
09/03/07 1014.2hPa 79%humidity 28.4C
09/05/07 1013.2hPa 78%humidity 29.1C
09/06/07 1013.3hPa 76%humidity 29.3C
09/07/07 1014.4hPa 80%humidity 28.5C
09/08/07 1013.1hPa 83%humidity 27.8C Location: 13.206N-138.798W at 1555UTC
09/10/07 1009.8hPa 89%humidity 26.9C Location: 12.447N-140.360W at 1531UTC
09/11/07 1010.4hPa 87%humidity 27.3C Location: 12.533N-141.018W at 1526UTC
09/12/07 1010.4hPa 84%humidity 27.4C Location: 12.373N-141.892W at 1525UTC
09/14/07 1013.0hPa 80%humidity 28.4C Location: 11.812N-143.159W at 1629UTC
09/15/07 1012.5hPa 78%humidity 28.1C Location: 11.330N-143.860W at 1644UTC
09/16/07 1011.4hPa 85%humidity 28.5C Location: 10.944N-144.136W at 1728UTC
09/17/07 1011.3hPa 94%humidity 26.2C Location: 10.860N-144.190W at 1552UTC
09/18/07 1010.7hPa 85%humidity 28.2C Location: 10.529N-144.891W at 1626UTC
09/20/07 1010.3hPa 83%humidity 27.6C Location: 10.340N-145.449W at 1600UTC
09/21/07 1010.3hPa 87%humidity 27.6C Location: 10.696N-145.608W at 1558UTC
09/22/07 1012.9hPa 78%humidity 28.3C Location: 11.017N-145.657W at 1719UTC
09/23/07 1012.0hPa 88%humidity 27.3C Location: 10.905N-145.495W at 1621UTC
09/24/07 1011.2hPa 82%humidity 27.5C Location: 11.012N-145.620W at 1554UTC
09/25/07 1013.2hPa 83%humidity 26.7C Location: 11.048N-145.429W at 1557UTC
09/26/07 1010.9hPa 83%humidity 27.8C Location: 10.962N-146.122W at 1555UTC
09/27/07 1011.4hPa 86%humidity 28.2C Location: 11.004N-146.847W at 1602UTC
09/29/07 1013.1hPa 80%humidity 28.4C Location: 11.237N-147.474W at 1619UTC
09/30/07 1011.3hPa 80%humidity 28.3C Location: 11.063N-147.335W at 1646UTC
10/01/07 1011.5hPa 86%humidity 27.9C Location: 11.124N-148.030W at 1623UTC
10/02/07 1013.3hPa 85%humidity 27.8C Location: 11.043N-148.475W at 1659UTC
10/03/07 1013.4hPa 91%humidity 27.2C Location: 11.039N-148.985W at 1724UTC
10/04/07 1013.3hPa 78%humidity 28.6C Location: 11.353N-148.923W at 1713UTC
10/05/07 1013.4hPa 76%humidity 30.2C Location: 11.442N-148.933W at 1736UTC
10/06/07 1012.9hPa 82%humidity 28.4C Location: 11.216N-149.299W at 1720UTC
10/07/07 1012.9hPa 91%humidity 26.8C Location: 11.213N-149.861W at 1802UTC
10/08/07 1011.0hPa 86%humidity 27.0C Location: 11.039N-150.222W at 1623UTC
10/09/07 1014.2hPa 81%humidity 26.8C Location: 10.929N-150.275W at 1707UTC
10/10/07 1013.0hPa 85%humidity 28.2C Location: 10.433N-150.554W at 1634UTC
10/11/07 1012.3hPa 86%humidity 28.9C Location: 10.132N-151.345W at 1643UTC
10/12/07 1010.6hPa 96%humidity 27.5C Location: 09.919N-151.556W at 1606UTC
10/13/07 1012.6hPa 88%humidity 26.6C Location: 09.809N-151.493W at 1934UTC
10/14/07 1013.0hPa 88%humidity 26.6C Location: 09.825N-151.535W at 1646UTC
10/15/07 1012.4hPa 91%humidity 27.1C Location: 09.530N-151.818W at 1619UTC
10/16/07 1011.6hPa 87%humidity 27.3C Location: 09.123N-152.083W at 1554UTC
10/17/07 1012.7hPa 92%humidity 26.8C Location: 08.822N-152.163W at 1617UTC
10/18/07 1013.2hPa 84%humidity 28.0C Location: 08.756N-152.061W at 1642UTC
10/19/07 1012.4hPa 83%humidity 28.7C Location: 08.629N-151.996W at 1633UTC
10/20/07 1010.5hPa 86%humidity 27.8C Location: 08.304N-152.484W at 1634UTC
10/21/07 1011.3hPa 90%humidity 28.4C Location: 08.125N-153.155W at 1709UTC
10/22/07 1011.0hPa 83%humidity 27.9C Location: 07.959N-153.353W at 1652UTC
10/23/07 1010.3hPa 86%humidity 28.6C Location: 07.927N-153.370W at 1732UTC
10/24/07 1008.6hPa 90%humidity 26.5C Location: 07.5641N,153.6269W
10/25/07 1010.3hPa 81%humidity 27.8C Position: 07.3441N,153.5974W
10/26/07 1008.5hPa 89%humidity 27.2C Position: 07.1142N,153.8607W
10/27/07 1008.5hPa 91%humidity 26.8C Position: 06.7382N,154.1874W
10/28/07 1010.0hPa 84%humidity 27.6C Position: 06.5923N,154.1849W
10/29/07 1011.9hPa 80%humidity 27.8C Position: 06.7073N,154.0738W
10/30/07 1012.3hPa 81%humidity 29.7C Position: 06.3909N,154.3100W
10/31/07 1010.0hPa 84%humidity 27.9C Position: 06.1297N,154.7555W
11/01/07 1010.4hPa 87%humidity 29.0C Position: 06.6445N,155.1625W
11/02/07 1009.8hPa 81%humidity 27.8C Position: 06.5667N,155.3407W
11/03/07 1010.2hPa 85%humidity 27.5C Position: 06.5570N,155.3620W
11/04/07 1009.2hPa 83%humidity 27.9C Position: 06.5332N,155.6995W
11/06/07 1008.6hPa 83%humidity 27.7C Position:06.69020N,155.92976W
11/07/07 1009.7hPa 86%humidity 27.4C Position: 06.93441N,155.95081W
11/08/07 1009.5hPa 88%humidity 27.9C Position: 06.59067N,156.34276W
11/09/07 1011.0hPa 82%humidity 27.6CPosition:07.20521N,156.68985W
11/10/07 1011.0hPa 80%humidity 28.2CPosition: 07.86200N,156.52127W
11/11/07 1009.6hPa 85%humidity 28.0C Position: 07.94641N,156.83301W
11/12/07 1008.2hPa 90%humidity 27.1C Position: 07.75816N,157.41844W
11/13/07 1008.0hPa 95%humidity 26.7C Position: 08.04N,157.88W
11/14/07 1009.5hPa 91%humidity 28.0C
11/15/07 1008.0hPa 89%humidity 27.2C Position: 7.98061N, 158.10120W 1758UTC
11/16/07 1006.9hPa 91%humidity 27.2C Position:7.97541N, 158.39301W 1654UTC
11/17/07 1008.4hPa 84%humidity 28.1C Position: 7.79727N, 158.62440W 1656UTC
11/18/07 1008.6hPa 87%humidity 27.8C Position: 7.47372N, 158.81273W 1657UTC
11/19/07 1009.0hPa 91%humidity 27.5C Position: 7.38463N, 159.05389W 1624UTC
11/20/07 1009.1hPa 80%humidity 27.1C Position: 7.47350N, 159.12640W 1634UTC
11/21/07 1010.2hPa 80%humidity 27.3C Position: 7.49600N, 159.13240W 1646UTC
11/23/07 1013.1hPa 87%humidity 27.1C Position: 7.0868N, 159.0563W 1831UTC
11/24/07 1010.9hPa 90%humidity 27.2C Position: 6.9718N, 159.4727W 1716UTC
11/25/07 1008.1hPa 85%humidity 27.3C Position: 6.8753N, 159.4564W 1638UTC
11/26/07 1009.6hPa 82%humidity 27.5C Position: 7.1349N, 159.2108W 1713UTC
11/27/07 1010.9hPa 85%humidity 28.2C Position: 7.1276N, 159.1081W 1653UTC
11/28/07 1012.4hPa 88%humidity 27.7C Position: 7.24564N, 158.94838W 1615UTC
11/29/07 1013.6hPa 89%humidity 28.9C Position: 6.9000N, 159.03932W 1800UTC
11/30/07 1010.8hPa 87%humidity 27.1C Position: 6.930N, 159.189W 1609UTC
12/02/07 1011.2hPa 93%humidity 27.3C
12/03/07 1015.0hPa 95%humidity 27.8C Position: 7.412N, 158.645W at 1740UTC
12/04/07 1015.9hPa 87%humidity 27.7C Position: 07.88314N, 158.77299W at 1721UTC
12/05/07 1013.8hPa 87%humidity 27.7C Position: 08.23755N, 158.99434W at 1717UTC
12/06/07 1010.8hPa 85%humidity 29.4C Position: 08.23738N, 159.24916W at 1839UTC
12/07/07 1010.8hPa 83%humidity 29.4C Position: 08.52384N, 159.60393W at 1854UTC
12/08/07 1010.9hPa 90%humidity 28.2C Position: 08.74348N, 159.90895W at 1657UTC
12/09/07 1010.6hPa 86%humidity 27.5C Position: 08.64513N, 160.24971W at 1657UTC
12/10/07 1010.8hPa 89%humidity 28.5C Position: 08.58708N, 160.76947W at 1645UTC
12/11/07 1008.8hPa 89%humidity 27.7C Position: 08.75388N, 160.97354W at 1704UTC
12/12/07 1009.4hPa 89%humidity 27.6C Position:08.83762N, 161.26987W at 1638UTC
12/13/07 1011.0hPa 87%humidity 28.4C Position:08.95876N, 161.73068W at 1743UTC
12/14/07 1010.3hPa 91%humidity 27.3C Position: 08.93510N, 162.24706W at 1708UTC
12/15/07 1011.2hPa 88%humidity 27.8C Position: 08.97728N, 162.84253W at 1707UTC
12/16/07 1011.6hPa 87%humidity 27.8C Position: 09.01582N, 163.50710W at 1645UTC
12/17/07 1010.8hPa 90%humidity 29.0C Position: 09.01727N, 163.93552W at 1800UTC
12/18/07 1010.9hPa 91%humidity 26.9C Position: 08.90203N, 164.36812W at 1658UTC
12/19/07 1011.0hPa 93%humidity 28.0C Position: 08.655N 164.788W
12/21/07 1019.8hPa 89%humidity 27.8C Position: 08.12548N 165.58360W
12/22/07 1010.8hPa 86%humidity 28.0C Position: 07.85069N 165.73161W
12/23/07 1009.0hPa 89%humidity 27.3C Position: 07.45493N 166.16141W
12/24/07 1009.0hPa 100%humidity  26.5C
12/25/07 1010.1hPa 90.5%humidit y27.2C Position: 07.12776N,166.73448W, 1750UTC
12/26/07 1007.7hPa 92.0%humidity 26.0C Position: 06.84748N,166.93802W, 1823UTC
12/27/07 1005.9hPa 93.0%humidity 27.3C Position: 06.70322N,167.11243W, 1817UTC
12/28/07 1008.8hPa 85.0%humidity 27.8C Position: 06.69790N,167.41747W, 1812UTC
12/29/07 1008.4hPa 88.0% humidity 27.2C Position: 06.48895N,167.61740W, 1710UTC
12/30/07 1008.1hPa 90.0% humidity 27.5C Position: 06.27135N,167.96913W, 1729UTC
12/31/07 1007.2hPa 91.0% humidity 27.3C Position: 05.95900N,168.66400W, 1755UTC

Data Comparisons
Standard atmospheric pressure, 1 atm = 1013.25 hPa
20 degree Celsius = 68 degree Fahrenheit
25 degree Celsius = 77 degree Fahrenheit
30 degree Celsius = 86 degree Fahrenheit
35 degree Celsius = 95 degree Fahrenheit

WhaleNet
click here
Home Page